createdAt,value
2017-02-18T00:02:01.492Z,1020.52
2017-02-18T00:06:57.734Z,1020.45
2017-02-18T00:11:54.147Z,1020.58
2017-02-18T00:16:51.324Z,1020.53
2017-02-18T00:21:47.704Z,1020.50
2017-02-18T00:26:44.172Z,1020.52
2017-02-18T00:31:40.903Z,1020.49
2017-02-18T00:36:37.124Z,1020.47
2017-02-18T00:41:33.778Z,1020.52
2017-02-18T00:46:29.876Z,1020.52
2017-02-18T00:51:26.492Z,1020.51
2017-02-18T00:56:22.942Z,1020.49
2017-02-18T01:01:19.872Z,1020.43
2017-02-18T01:06:16.127Z,1020.46
2017-02-18T01:11:12.613Z,1020.58
2017-02-18T01:16:09.374Z,1020.48
2017-02-18T01:21:06.628Z,1020.50
2017-02-18T01:26:03.476Z,1020.46
2017-02-18T01:31:01.211Z,1020.43
2017-02-18T01:35:57.866Z,1020.52
2017-02-18T01:40:54.109Z,1020.53
2017-02-18T01:45:50.813Z,1020.48
2017-02-18T01:50:47.292Z,1020.43
2017-02-18T01:55:43.744Z,1020.49
2017-02-18T02:00:40.571Z,1020.40
2017-02-18T02:05:37.366Z,1020.38
2017-02-18T02:10:33.624Z,1020.37
2017-02-18T02:15:30.645Z,1020.40
2017-02-18T02:20:27.097Z,1020.33
2017-02-18T02:25:23.982Z,1020.27
2017-02-18T02:30:20.658Z,1020.32
2017-02-18T02:35:17.500Z,1020.28
2017-02-18T02:40:13.861Z,1020.23
2017-02-18T02:45:10.245Z,1020.24
2017-02-18T02:50:06.464Z,1020.23
2017-02-18T02:55:02.862Z,1020.21
2017-02-18T02:59:59.179Z,1020.10
2017-02-18T03:04:55.735Z,1020.04
2017-02-18T03:09:52.348Z,1020.14
2017-02-18T03:14:48.766Z,1020.00
2017-02-18T03:19:45.386Z,1020.08
2017-02-18T03:24:41.525Z,1020.01
2017-02-18T03:29:38.273Z,1020.03
2017-02-18T03:34:34.756Z,1019.95
2017-02-18T03:39:31.166Z,1019.99
2017-02-18T03:44:28.593Z,1019.97
2017-02-18T03:49:24.792Z,1019.97
2017-02-18T03:54:21.371Z,1020.11
2017-02-18T03:59:17.796Z,1020.13
2017-02-18T04:04:14.154Z,1020.09
2017-02-18T04:09:11.061Z,1020.05
2017-02-18T04:14:07.163Z,1020.02
2017-02-18T04:19:03.530Z,1020.16
2017-02-18T04:24:00.007Z,1020.24
2017-02-18T04:28:56.593Z,1020.26
2017-02-18T04:33:53.549Z,1020.18
2017-02-18T04:38:50.062Z,1020.23
2017-02-18T04:43:47.257Z,1020.27
2017-02-18T04:48:43.423Z,1020.16
2017-02-18T04:53:39.829Z,1020.36
2017-02-18T04:58:36.124Z,1020.35
2017-02-18T05:03:32.788Z,1020.34
2017-02-18T05:08:28.764Z,1020.37
2017-02-18T05:13:26.220Z,1020.34
2017-02-18T05:18:22.307Z,1020.34
2017-02-18T05:23:18.636Z,1020.38
2017-02-18T05:28:15.488Z,1020.39
2017-02-18T05:33:12.609Z,1020.47
2017-02-18T05:38:08.852Z,1020.37
2017-02-18T05:43:05.339Z,1020.37
2017-02-18T05:48:01.678Z,1020.43
2017-02-18T05:52:58.171Z,1020.40
2017-02-18T05:57:54.490Z,1020.43
2017-02-18T06:02:51.014Z,1020.42
2017-02-18T06:07:47.079Z,1020.47
2017-02-18T06:12:43.548Z,1020.56
2017-02-18T06:17:40.353Z,1020.59
2017-02-18T06:22:36.657Z,1020.61
2017-02-18T06:27:33.208Z,1020.84
2017-02-18T06:32:31.789Z,1020.78
2017-02-18T06:37:27.403Z,1020.83
2017-02-18T06:47:24.688Z,1020.82
2017-02-18T06:52:21.126Z,1020.74
2017-02-18T06:57:17.503Z,1020.81
2017-02-18T07:02:14.138Z,1020.83
2017-02-18T07:07:11.135Z,1020.83
2017-02-18T07:12:07.511Z,1020.84
2017-02-18T07:17:03.906Z,1020.94
2017-02-18T07:22:00.273Z,1020.90
2017-02-18T07:26:57.863Z,1020.94
2017-02-18T07:31:53.857Z,1020.88
2017-02-18T07:36:50.764Z,1020.88
2017-02-18T07:41:47.416Z,1020.98
2017-02-18T07:46:43.579Z,1020.99
2017-02-18T07:51:41.416Z,1020.99
2017-02-18T07:56:37.597Z,1020.97
2017-02-18T08:01:34.212Z,1020.99
2017-02-18T08:06:30.426Z,1020.95
2017-02-18T08:11:26.878Z,1020.90
2017-02-18T08:16:23.889Z,1020.96
2017-02-18T08:21:20.543Z,1020.94
2017-02-18T08:26:17.137Z,1021.00
2017-02-18T08:31:13.746Z,1020.96
2017-02-18T08:36:10.341Z,1020.91
2017-02-18T08:41:07.200Z,1020.96
2017-02-18T08:46:03.691Z,1020.95
2017-02-18T08:51:00.318Z,1020.96
2017-02-18T08:55:57.076Z,1020.95
2017-02-18T09:00:53.518Z,1021.05
2017-02-18T09:05:50.173Z,1021.00
2017-02-18T09:10:46.767Z,1021.02
2017-02-18T09:15:43.347Z,1021.08
2017-02-18T09:20:40.456Z,1021.12
2017-02-18T09:25:37.008Z,1021.03
2017-02-18T09:30:33.597Z,1021.06
2017-02-18T09:35:29.906Z,1021.07
2017-02-18T09:40:26.831Z,1021.12
2017-02-18T09:45:23.680Z,1021.08
2017-02-18T09:50:20.367Z,1021.06
2017-02-18T09:55:16.993Z,1020.97
2017-02-18T10:00:13.541Z,1020.96
2017-02-18T10:05:10.237Z,1020.96
2017-02-18T10:10:06.654Z,1021.00
2017-02-18T10:15:05.305Z,1020.98
2017-02-18T10:20:01.559Z,1021.00
2017-02-18T10:24:57.863Z,1021.01
2017-02-18T10:29:58.088Z,1020.98
2017-02-18T10:34:54.640Z,1021.01
2017-02-18T10:39:51.348Z,1021.03
2017-02-18T10:44:47.715Z,1021.08
2017-02-18T10:49:44.511Z,1021.03
2017-02-18T10:54:45.469Z,1020.94
2017-02-18T10:59:40.540Z,1020.98
2017-02-18T11:04:36.899Z,1020.91
2017-02-18T11:09:33.626Z,1021.07
2017-02-18T11:14:30.444Z,1020.97
2017-02-18T11:19:27.168Z,1020.88
2017-02-18T11:24:23.523Z,1020.93
2017-02-18T11:29:20.342Z,1020.96
2017-02-18T11:34:16.836Z,1020.87
2017-02-18T11:39:13.576Z,1020.89
2017-02-18T11:44:11.622Z,1020.87
2017-02-18T11:49:08.175Z,1020.76
2017-02-18T11:54:05.751Z,1020.68
2017-02-18T11:59:02.169Z,1020.61
2017-02-18T12:03:59.821Z,1020.54
2017-02-18T12:08:56.028Z,1020.53
2017-02-18T12:13:53.641Z,1020.41
2017-02-18T12:18:50.157Z,1020.33
2017-02-18T12:23:46.724Z,1020.29
2017-02-18T12:28:43.271Z,1020.28
2017-02-18T12:33:40.869Z,1020.23
2017-02-18T12:38:38.412Z,1020.21
2017-02-18T12:43:35.404Z,1020.07
2017-02-18T12:48:32.233Z,1020.03
2017-02-18T12:53:28.828Z,1020.08
2017-02-18T12:58:25.123Z,1020.00
2017-02-18T13:03:21.298Z,1019.96
2017-02-18T13:08:17.264Z,1019.95
2017-02-18T13:13:13.752Z,1019.96
2017-02-18T13:18:10.237Z,1019.90
2017-02-18T13:23:06.447Z,1019.83
2017-02-18T13:28:02.652Z,1019.91
2017-02-18T13:32:59.826Z,1019.85
2017-02-18T13:37:56.707Z,1019.79
2017-02-18T13:42:54.022Z,1019.77
2017-02-18T13:47:50.275Z,1019.73
2017-02-18T13:52:47.465Z,1019.72
2017-02-18T13:57:43.896Z,1019.73
2017-02-18T14:02:40.186Z,1019.58
2017-02-18T14:07:36.416Z,1019.69
2017-02-18T14:12:33.741Z,1019.63
2017-02-18T14:17:30.330Z,1019.55
2017-02-18T14:22:26.155Z,1019.49
2017-02-18T14:27:22.650Z,1019.46
2017-02-18T14:32:19.054Z,1019.53
2017-02-18T14:37:15.418Z,1019.47
2017-02-18T14:42:11.792Z,1019.52
2017-02-18T14:47:08.301Z,1019.48
2017-02-18T14:52:04.543Z,1019.50
2017-02-18T14:57:01.206Z,1019.46
2017-02-18T15:01:57.450Z,1019.44
2017-02-18T15:06:53.912Z,1019.43
2017-02-18T15:11:50.496Z,1019.43
2017-02-18T15:16:46.691Z,1019.37
2017-02-18T15:21:43.529Z,1019.30
2017-02-18T15:26:39.875Z,1019.33
2017-02-18T15:31:36.293Z,1019.24
2017-02-18T15:36:32.914Z,1019.27
2017-02-18T15:41:29.602Z,1019.10
2017-02-18T15:46:26.233Z,1019.18
2017-02-18T15:51:23.072Z,1019.15
2017-02-18T15:56:19.591Z,1019.18
2017-02-18T16:01:16.190Z,1019.10
2017-02-18T16:06:12.845Z,1019.15
2017-02-18T16:11:09.060Z,1019.09
2017-02-18T16:16:05.684Z,1019.07
2017-02-18T16:21:02.103Z,1019.10
2017-02-18T16:25:59.460Z,1019.07
2017-02-18T16:30:56.014Z,1019.07
2017-02-18T16:35:53.216Z,1019.07
2017-02-18T16:40:49.568Z,1019.05
2017-02-18T16:45:47.051Z,1019.10
2017-02-18T16:50:43.584Z,1019.07
2017-02-18T16:55:39.993Z,1019.05
2017-02-18T17:00:37.011Z,1019.16
2017-02-18T17:05:34.291Z,1019.14
2017-02-18T17:10:30.433Z,1019.14
2017-02-18T17:15:26.892Z,1019.05
2017-02-18T17:20:23.126Z,1019.09
2017-02-18T17:25:19.913Z,1019.14
2017-02-18T17:30:16.461Z,1019.02
2017-02-18T17:35:13.494Z,1019.15
2017-02-18T17:40:10.917Z,1019.07
2017-02-18T17:45:07.043Z,1019.05
2017-02-18T17:50:03.390Z,1019.00
2017-02-18T17:54:59.815Z,1019.07
2017-02-18T17:59:56.275Z,1019.01
2017-02-18T18:04:52.696Z,1018.99
2017-02-18T18:09:49.895Z,1018.94
2017-02-18T18:14:46.254Z,1018.98
2017-02-18T18:19:42.697Z,1018.96
2017-02-18T18:24:39.175Z,1018.90
2017-02-18T18:29:35.695Z,1018.86
2017-02-18T18:34:32.734Z,1018.80
2017-02-18T18:39:29.395Z,1018.84
2017-02-18T18:44:25.848Z,1018.83
2017-02-18T18:49:22.107Z,1018.88
2017-02-18T18:54:18.531Z,1018.88
2017-02-18T18:59:14.765Z,1018.86
2017-02-18T19:04:10.807Z,1018.92
2017-02-18T19:09:08.584Z,1018.87
2017-02-18T19:14:04.651Z,1018.84
2017-02-18T19:19:00.899Z,1018.82
2017-02-18T19:23:57.194Z,1018.74
2017-02-18T19:28:53.641Z,1018.83
2017-02-18T19:33:50.452Z,1018.85
2017-02-18T19:38:48.399Z,1018.87
2017-02-18T19:43:45.058Z,1018.75
2017-02-18T19:48:42.253Z,1018.80
2017-02-18T19:53:38.756Z,1018.75
2017-02-18T19:58:35.378Z,1018.82
2017-02-18T20:03:31.427Z,1018.81
2017-02-18T20:08:28.210Z,1018.74
2017-02-18T20:13:24.650Z,1018.65
2017-02-18T20:18:21.183Z,1018.65
2017-02-18T20:23:17.629Z,1018.59
2017-02-18T20:28:13.590Z,1018.57
2017-02-18T20:33:11.002Z,1018.50
2017-02-18T20:38:07.179Z,1018.52
2017-02-18T20:43:03.632Z,1018.51
2017-02-18T20:48:00.076Z,1018.39
2017-02-18T20:52:56.679Z,1018.40
2017-02-18T20:57:52.909Z,1018.37
2017-02-18T21:02:52.168Z,1018.42
2017-02-18T21:07:47.879Z,1018.27
2017-02-18T21:12:45.523Z,1018.39
2017-02-18T21:17:41.722Z,1018.31
2017-02-18T21:22:39.241Z,1018.24
2017-02-18T21:27:35.259Z,1018.21
2017-02-18T21:32:32.639Z,1018.28
2017-02-18T21:37:31.496Z,1018.18
2017-02-18T21:42:28.194Z,1018.17
2017-02-18T21:47:25.271Z,1018.21
2017-02-18T21:52:24.382Z,1018.19
2017-02-18T21:57:20.898Z,1018.12
2017-02-18T22:02:16.856Z,1018.02
2017-02-18T22:07:12.979Z,1018.13
2017-02-18T22:12:09.301Z,1018.09
2017-02-18T22:17:05.362Z,1018.10
2017-02-18T22:22:02.425Z,1018.16
2017-02-18T22:26:59.977Z,1018.23
2017-02-18T22:31:56.709Z,1018.15
2017-02-18T22:36:53.140Z,1018.11
2017-02-18T22:41:49.880Z,1018.08
2017-02-18T22:46:46.140Z,1018.08
2017-02-18T22:51:42.540Z,1018.06
2017-02-18T22:56:39.082Z,1018.00
2017-02-18T23:01:35.426Z,1018.00
2017-02-18T23:06:31.898Z,1017.90
2017-02-18T23:11:28.534Z,1017.93
2017-02-18T23:16:24.642Z,1018.00
2017-02-18T23:21:21.551Z,1017.88
2017-02-18T23:26:17.654Z,1017.89
2017-02-18T23:31:13.918Z,1017.91
2017-02-18T23:36:11.476Z,1017.98
2017-02-18T23:41:07.559Z,1017.91
2017-02-18T23:46:04.856Z,1017.82
2017-02-18T23:51:00.974Z,1017.84
2017-02-18T23:55:58.584Z,1017.80
